Terminal Aerodrome Forecast
Issued by NWS

Home | Current Version | Previous Version | Text Only | Print | Product List | Glossary On
Versions: 1 2 3 4 5 6 7 8 9 10 11 12 13 14 15 16 17
268
FTUS43 KJKL 121813 AAA
TAFSJS
TAF AMD
KSJS 121813Z 1218/1318 29010G19KT P6SM VCSH OVC025
      TEMPO 1218/1219 1SM -SHSN
     FM122200 29009G17KT P6SM BKN035
     FM130300 27006KT P6SM SKC
     FM131400 21005KT P6SM BKN070=

USA.gov is the U.S. government's official web portal to all federal, state and local government web resources and services.